createdAt,value
2022-11-25T00:03:23.428Z,73.65
2022-11-25T00:08:26.153Z,73.34
2022-11-25T00:13:28.959Z,73.81
2022-11-25T00:18:32.183Z,73.80
2022-11-25T00:23:35.592Z,73.54
2022-11-25T00:28:38.376Z,74.00
2022-11-25T00:33:41.127Z,73.95
2022-11-25T00:38:44.850Z,73.41
2022-11-25T00:44:05.960Z,74.27
2022-11-25T00:49:08.827Z,73.71
2022-11-25T00:54:11.314Z,74.08
2022-11-25T00:59:14.123Z,73.57
2022-11-25T01:04:17.360Z,73.71
2022-11-25T01:09:20.599Z,73.99
2022-11-25T01:14:23.823Z,73.84
2022-11-25T01:19:26.834Z,73.71
2022-11-25T01:24:29.488Z,74.14
2022-11-25T01:29:32.552Z,74.42
2022-11-25T01:34:36.019Z,74.23
2022-11-25T01:39:40.124Z,74.10
2022-11-25T01:44:43.625Z,73.95
2022-11-25T01:50:05.232Z,73.88
2022-11-25T01:55:14.308Z,74.20
2022-11-25T02:00:19.624Z,74.26
2022-11-25T02:05:53.561Z,74.11
2022-11-25T02:10:56.930Z,73.88
2022-11-25T02:15:59.676Z,73.96
2022-11-25T02:21:02.902Z,74.38
2022-11-25T02:26:06.115Z,74.02
2022-11-25T02:31:09.014Z,74.38
2022-11-25T02:36:16.571Z,74.28
2022-11-25T02:41:28.245Z,74.21
2022-11-25T02:46:35.048Z,74.13
2022-11-25T02:51:40.472Z,74.03
2022-11-25T02:56:45.109Z,74.35
2022-11-25T03:01:47.719Z,73.80
2022-11-25T03:06:50.343Z,74.35
2022-11-25T03:12:11.857Z,74.46
2022-11-25T03:17:15.031Z,74.21
2022-11-25T03:22:17.668Z,74.15
2022-11-25T03:27:20.357Z,73.75
2022-11-25T03:32:23.082Z,74.10
2022-11-25T03:37:25.856Z,74.35
2022-11-25T03:42:28.603Z,74.05
2022-11-25T03:47:33.124Z,73.81
2022-11-25T03:52:36.312Z,73.95
2022-11-25T03:57:39.568Z,74.06
2022-11-25T04:02:43.036Z,73.47
2022-11-25T04:07:46.071Z,72.93
2022-11-25T04:12:49.006Z,73.04
2022-11-25T04:17:55.804Z,73.25
2022-11-25T04:22:58.488Z,73.37
2022-11-25T04:28:01.334Z,73.12
2022-11-25T04:33:08.349Z,72.84
2022-11-25T04:38:11.118Z,73.24
2022-11-25T04:43:14.820Z,73.77
2022-11-25T04:48:25.588Z,74.19
2022-11-25T04:53:28.215Z,74.57
2022-11-25T04:58:49.381Z,74.76
2022-11-25T05:03:57.330Z,74.26
2022-11-25T05:09:02.302Z,74.38
2022-11-25T05:14:06.494Z,74.33
2022-11-25T05:19:09.282Z,74.31
2022-11-25T05:24:12.249Z,73.55
2022-11-25T05:29:15.175Z,74.18
2022-11-25T05:34:19.370Z,74.03
2022-11-25T05:39:22.497Z,73.81
2022-11-25T05:44:43.606Z,73.37
2022-11-25T05:49:46.542Z,73.68
2022-11-25T05:54:51.266Z,72.46
2022-11-25T05:59:58.008Z,72.21
2022-11-25T06:05:21.071Z,72.27
2022-11-25T06:10:24.803Z,72.37
2022-11-25T06:15:28.394Z,71.93
2022-11-25T06:20:35.110Z,72.07
2022-11-25T06:25:38.022Z,72.11
2022-11-25T06:30:42.292Z,72.39
2022-11-25T06:35:52.481Z,72.64
2022-11-25T06:41:00.213Z,72.04
2022-11-25T06:46:05.282Z,71.71
2022-11-25T06:51:10.811Z,71.69
2022-11-25T06:56:18.852Z,71.84
2022-11-25T07:01:24.068Z,72.02
2022-11-25T07:06:26.839Z,72.24
2022-11-25T07:11:31.802Z,71.77
2022-11-25T07:16:35.003Z,71.79
2022-11-25T07:21:37.747Z,71.86
2022-11-25T07:26:41.608Z,71.41
2022-11-25T07:31:45.750Z,71.29
2022-11-25T07:36:49.937Z,71.06
2022-11-25T07:41:54.339Z,71.32
2022-11-25T07:46:57.721Z,71.50
2022-11-25T07:52:02.018Z,71.50
2022-11-25T07:57:04.750Z,71.72
2022-11-25T08:02:09.477Z,71.87
2022-11-25T08:07:12.529Z,71.58
2022-11-25T08:12:15.313Z,72.06
2022-11-25T08:17:17.952Z,72.04
2022-11-25T08:22:20.637Z,71.39
2022-11-25T08:27:23.450Z,71.01
2022-11-25T08:32:26.100Z,70.76
2022-11-25T08:37:31.314Z,70.93
2022-11-25T08:42:34.332Z,70.62
2022-11-25T08:47:36.996Z,70.03
2022-11-25T08:52:39.782Z,69.79
2022-11-25T08:57:42.548Z,69.50
2022-11-25T09:02:45.244Z,69.97
2022-11-25T09:07:48.217Z,70.08
2022-11-25T09:12:51.042Z,70.13
2022-11-25T09:18:04.919Z,70.34
2022-11-25T09:23:08.681Z,70.77
2022-11-25T09:28:11.706Z,70.99
2022-11-25T09:33:14.602Z,71.06
2022-11-25T09:38:17.147Z,71.84
2022-11-25T09:43:51.194Z,71.92
2022-11-25T09:49:00.159Z,72.04
2022-11-25T09:54:15.622Z,71.69
2022-11-25T09:59:29.224Z,72.23
2022-11-25T10:04:36.884Z,72.67
2022-11-25T10:09:39.961Z,71.97
2022-11-25T10:14:47.008Z,72.65
2022-11-25T10:19:57.871Z,72.50
2022-11-25T10:25:14.924Z,73.17
2022-11-25T10:30:22.005Z,73.30
2022-11-25T10:35:37.483Z,72.93
2022-11-25T10:40:40.205Z,73.56
2022-11-25T10:46:07.063Z,73.56
2022-11-25T10:51:29.653Z,73.50
2022-11-25T10:56:44.064Z,73.64
2022-11-25T11:01:46.957Z,73.54
2022-11-25T11:06:51.547Z,73.97
2022-11-25T11:11:54.231Z,74.10
2022-11-25T11:16:57.978Z,74.44
2022-11-25T11:22:16.419Z,74.00
2022-11-25T11:27:24.035Z,74.37
2022-11-25T11:32:29.028Z,74.64
2022-11-25T11:37:44.724Z,74.49
2022-11-25T11:43:14.029Z,75.03
2022-11-25T11:48:28.865Z,74.81
2022-11-25T11:53:36.758Z,75.02
2022-11-25T11:58:57.820Z,75.30
2022-11-25T12:04:21.831Z,75.09
2022-11-25T12:09:25.942Z,75.15
2022-11-25T12:14:48.811Z,74.82
2022-11-25T12:20:10.166Z,75.22
2022-11-25T12:25:24.628Z,75.17
2022-11-25T12:30:36.773Z,75.33
2022-11-25T12:35:48.506Z,74.92
2022-11-25T12:41:14.445Z,75.28
2022-11-25T12:46:40.633Z,75.50
2022-11-25T12:52:01.695Z,74.88
2022-11-25T12:57:30.346Z,75.21
2022-11-25T13:02:35.942Z,74.88
2022-11-25T13:08:03.261Z,75.71
2022-11-25T13:13:39.395Z,74.97
2022-11-25T13:18:44.253Z,74.79
2022-11-25T13:23:49.264Z,75.04
2022-11-25T13:28:52.332Z,74.57
2022-11-25T13:34:21.827Z,74.94
2022-11-25T13:39:24.446Z,74.99
2022-11-25T13:44:32.597Z,75.41
2022-11-25T13:49:51.733Z,75.06
2022-11-25T13:54:56.056Z,75.29
2022-11-25T14:00:07.716Z,74.61
2022-11-25T14:05:39.748Z,75.23
2022-11-25T14:10:51.306Z,74.34
2022-11-25T14:16:08.817Z,74.83
2022-11-25T14:21:45.718Z,74.30
2022-11-25T14:26:52.454Z,74.47
2022-11-25T14:32:13.497Z,74.13
2022-11-25T14:37:27.759Z,74.24
2022-11-25T14:42:36.761Z,74.39
2022-11-25T14:47:39.520Z,75.03
2022-11-25T14:52:44.475Z,74.92
2022-11-25T14:57:47.279Z,75.04
2022-11-25T15:02:56.712Z,74.85
2022-11-25T15:08:12.063Z,74.80
2022-11-25T15:13:41.399Z,74.88
2022-11-25T15:18:58.878Z,74.14
2022-11-25T15:24:03.097Z,74.39
2022-11-25T15:29:12.753Z,75.13
2022-11-25T15:34:16.340Z,73.75
2022-11-25T15:39:22.079Z,74.90
2022-11-25T15:44:28.868Z,74.18
2022-11-25T15:49:32.818Z,73.90
2022-11-25T15:54:45.204Z,74.12
2022-11-25T15:59:53.928Z,73.05
2022-11-25T16:05:17.442Z,73.44
2022-11-25T16:10:22.994Z,72.88
2022-11-25T16:15:57.523Z,72.94
2022-11-25T16:21:05.992Z,73.77
2022-11-25T16:26:11.768Z,74.31
2022-11-25T16:31:16.953Z,73.77
2022-11-25T16:36:19.755Z,73.82
2022-11-25T16:41:24.978Z,73.62
2022-11-25T16:46:28.474Z,73.06
2022-11-25T16:51:31.187Z,73.38
2022-11-25T16:56:35.583Z,73.72
2022-11-25T17:01:38.290Z,73.54
2022-11-25T17:06:42.566Z,73.07
2022-11-25T17:11:47.210Z,72.66
2022-11-25T17:16:50.010Z,73.42
2022-11-25T17:21:52.807Z,72.36
2022-11-25T17:27:04.464Z,72.55
2022-11-25T17:32:07.505Z,71.62
2022-11-25T17:37:18.736Z,72.04
2022-11-25T17:42:30.956Z,72.35
2022-11-25T17:47:33.586Z,71.30
2022-11-25T17:52:36.216Z,71.60
2022-11-25T17:57:39.625Z,72.35
2022-11-25T18:02:42.309Z,71.95
2022-11-25T18:07:45.078Z,72.25
2022-11-25T18:12:49.935Z,71.59
2022-11-25T18:17:57.543Z,71.70
2022-11-25T18:23:01.267Z,71.78
2022-11-25T18:28:05.008Z,71.74
2022-11-25T18:33:13.919Z,71.81
2022-11-25T18:38:16.554Z,71.92
2022-11-25T18:43:23.652Z,71.56
2022-11-25T18:48:27.287Z,71.01
2022-11-25T18:53:30.053Z,71.52
2022-11-25T18:58:33.391Z,71.15
2022-11-25T19:03:36.004Z,71.21
2022-11-25T19:08:38.655Z,70.30
2022-11-25T19:13:41.474Z,70.96
2022-11-25T19:18:48.766Z,71.59
2022-11-25T19:23:51.487Z,71.11
2022-11-25T19:29:00.111Z,70.59
2022-11-25T19:34:02.772Z,70.19
2022-11-25T19:39:14.735Z,70.16
2022-11-25T19:44:17.743Z,70.56
2022-11-25T19:49:20.620Z,70.56
2022-11-25T19:54:23.254Z,70.34
2022-11-25T19:59:25.934Z,70.16
2022-11-25T20:04:28.714Z,70.74
2022-11-25T20:09:31.376Z,70.03
2022-11-25T20:14:35.153Z,70.20
2022-11-25T20:19:38.612Z,69.91
2022-11-25T20:24:41.272Z,69.32
2022-11-25T20:29:43.960Z,70.31
2022-11-25T20:34:47.731Z,70.12
2022-11-25T20:39:52.447Z,69.32
2022-11-25T20:44:57.703Z,69.95
2022-11-25T20:50:00.617Z,69.71
2022-11-25T20:55:16.999Z,69.21
2022-11-25T21:00:25.623Z,69.88
2022-11-25T21:05:28.345Z,69.78
2022-11-25T21:10:35.186Z,69.93
2022-11-25T21:15:37.861Z,69.30
2022-11-25T21:20:41.323Z,69.55
2022-11-25T21:25:44.029Z,69.46
2022-11-25T21:30:47.426Z,69.90
2022-11-25T21:35:53.196Z,69.55
2022-11-25T21:40:56.812Z,69.39
2022-11-25T21:46:10.356Z,69.09
2022-11-25T21:51:14.774Z,68.50
2022-11-25T21:56:28.464Z,69.13
2022-11-25T22:01:31.624Z,69.40
2022-11-25T22:06:34.348Z,68.63
2022-11-25T22:11:39.371Z,68.82
2022-11-25T22:16:42.130Z,68.40
2022-11-25T22:21:45.168Z,68.80
2022-11-25T22:26:51.337Z,69.12
2022-11-25T22:31:57.425Z,69.24
2022-11-25T22:37:00.176Z,68.63
2022-11-25T22:42:07.993Z,67.89
2022-11-25T22:47:17.694Z,68.75
2022-11-25T22:52:21.988Z,68.86
2022-11-25T22:57:24.695Z,68.86
2022-11-25T23:02:31.929Z,69.21
2022-11-25T23:07:34.956Z,68.25
2022-11-25T23:12:37.639Z,67.85
2022-11-25T23:17:40.589Z,68.73
2022-11-25T23:22:43.307Z,67.89
2022-11-25T23:27:46.201Z,67.86
2022-11-25T23:32:50.677Z,67.73
2022-11-25T23:37:57.676Z,67.52
2022-11-25T23:43:00.458Z,68.18
2022-11-25T23:48:04.155Z,68.10
2022-11-25T23:53:08.284Z,67.42
2022-11-25T23:58:16.321Z,67.86
